Koslan, Russia
Current Conditions -  °F | °C
As of 12:00 AM on Thursday 27 Nov 2014 (Local Time) from UUYY Reporting Station
Overcast Overcast  
Wind Chill: 15°   Ceiling: 3100
Heat Index: 21°   Visibility: 6mi
Dew Point: 16°   Wind: 4mph
Humidity: 80%   Direction: 110°ESE
Pressure: 30.33"   Gusts: NA
Location:  63.45°N, 48.9°E
Report Text: UUYY 262100Z 11002MPS 9999 BKN031CB OVC066 M06/M09 Q1027 NOSIG0119//51 RMK QFE761/1015
Loading
Personal Weather Stations






























Interactive Weather Map New forecast layout! Learn more

10-Day Weather Forecast

Advertisements
Track Severe Weather on mobile